createdAt,value
2023-05-17T00:00:25.565Z,2.90
2023-05-17T00:02:54.583Z,2.80
2023-05-17T00:05:22.385Z,2.50
2023-05-17T00:07:50.222Z,2.57
2023-05-17T00:10:18.047Z,2.63
2023-05-17T00:12:46.147Z,2.73
2023-05-17T00:15:14.660Z,3.13
2023-05-17T00:17:42.362Z,2.47
2023-05-17T00:20:12.563Z,2.90
2023-05-17T00:22:41.110Z,2.70
2023-05-17T00:25:09.087Z,2.90
2023-05-17T00:27:36.712Z,2.90
2023-05-17T00:30:04.662Z,3.33
2023-05-17T00:32:32.488Z,2.60
2023-05-17T00:35:00.435Z,2.77
2023-05-17T00:37:29.604Z,3.40
2023-05-17T00:39:57.285Z,2.67
2023-05-17T00:42:25.022Z,3.47
2023-05-17T00:44:58.510Z,2.60
2023-05-17T00:47:26.223Z,3.17
2023-05-17T00:49:53.969Z,3.17
2023-05-17T00:52:21.763Z,2.63
2023-05-17T00:54:51.753Z,3.10
2023-05-17T00:57:19.469Z,2.90
2023-05-17T00:59:47.761Z,2.70
2023-05-17T01:02:15.649Z,2.80
2023-05-17T01:04:43.315Z,2.57
2023-05-17T01:07:11.285Z,3.20
2023-05-17T01:09:39.242Z,2.20
2023-05-17T01:12:15.275Z,2.60
2023-05-17T01:14:58.523Z,2.40
2023-05-17T01:17:30.362Z,2.73
2023-05-17T01:20:07.479Z,2.90
2023-05-17T01:22:41.059Z,2.47
2023-05-17T01:25:17.812Z,2.33
2023-05-17T01:27:49.216Z,2.50
2023-05-17T01:30:18.126Z,2.10
2023-05-17T01:32:46.640Z,2.60
2023-05-17T01:35:14.491Z,2.40
2023-05-17T01:37:42.250Z,2.57
2023-05-17T01:40:10.568Z,2.73
2023-05-17T01:42:40.355Z,2.53
2023-05-17T01:45:13.596Z,2.40
2023-05-17T01:47:46.718Z,2.80
2023-05-17T01:50:16.536Z,2.50
2023-05-17T01:52:49.800Z,2.30
2023-05-17T01:55:22.028Z,2.80
2023-05-17T01:57:50.229Z,2.43
2023-05-17T02:00:20.333Z,2.50
2023-05-17T02:02:48.197Z,3.23
2023-05-17T02:05:15.943Z,3.10
2023-05-17T02:07:43.660Z,2.60
2023-05-17T02:10:12.032Z,2.57
2023-05-17T02:12:39.794Z,3.00
2023-05-17T02:15:11.234Z,2.57
2023-05-17T02:17:41.398Z,2.47
2023-05-17T02:20:11.608Z,3.10
2023-05-17T02:22:39.215Z,2.33
2023-05-17T02:25:08.029Z,2.80
2023-05-17T02:27:36.169Z,2.93
2023-05-17T02:30:04.614Z,2.40
2023-05-17T02:32:32.518Z,2.33
2023-05-17T02:35:01.601Z,2.70
2023-05-17T02:37:29.227Z,2.70
2023-05-17T02:39:56.874Z,2.30
2023-05-17T02:42:24.536Z,2.90
2023-05-17T02:44:53.015Z,2.63
2023-05-17T02:47:21.191Z,2.77
2023-05-17T02:49:48.908Z,2.43
2023-05-17T02:52:17.885Z,2.60
2023-05-17T02:54:45.901Z,2.60
2023-05-17T02:57:13.602Z,2.47
2023-05-17T02:59:41.280Z,2.73
2023-05-17T03:02:08.961Z,2.50
2023-05-17T03:04:37.058Z,2.60
2023-05-17T03:07:06.977Z,2.70
2023-05-17T03:09:36.301Z,2.60
2023-05-17T03:12:04.057Z,2.73
2023-05-17T03:14:31.931Z,2.33
2023-05-17T03:16:59.634Z,2.80
2023-05-17T03:19:27.598Z,3.17
2023-05-17T03:21:55.291Z,2.77
2023-05-17T03:24:22.932Z,2.33
2023-05-17T03:26:51.895Z,2.33
2023-05-17T03:29:19.543Z,3.10
2023-05-17T03:31:47.148Z,2.53
2023-05-17T03:34:14.900Z,3.17
2023-05-17T03:36:42.631Z,2.60
2023-05-17T03:39:10.286Z,2.20
2023-05-17T03:41:37.986Z,2.23
2023-05-17T03:44:07.133Z,2.53
2023-05-17T03:46:34.823Z,3.07
2023-05-17T03:49:02.568Z,2.60
2023-05-17T03:51:30.842Z,3.10
2023-05-17T03:53:59.806Z,2.53
2023-05-17T03:56:27.813Z,2.47
2023-05-17T03:58:55.469Z,2.47
2023-05-17T04:01:24.424Z,2.73
2023-05-17T04:03:52.159Z,2.50
2023-05-17T04:06:19.793Z,3.03
2023-05-17T04:08:47.438Z,2.70
2023-05-17T04:11:15.471Z,2.87
2023-05-17T04:13:43.524Z,2.53
2023-05-17T04:16:11.489Z,2.67
2023-05-17T04:18:40.553Z,2.40
2023-05-17T04:21:08.373Z,2.60
2023-05-17T04:23:36.470Z,2.47
2023-05-17T04:26:04.845Z,2.63
2023-05-17T04:28:34.839Z,3.07
2023-05-17T04:31:02.513Z,3.00
2023-05-17T04:33:30.157Z,2.40
2023-05-17T04:35:59.283Z,2.63
2023-05-17T04:38:26.986Z,2.83
2023-05-17T04:40:54.799Z,2.57
2023-05-17T04:43:22.483Z,2.80
2023-05-17T04:45:50.203Z,2.80
2023-05-17T04:48:19.955Z,2.87
2023-05-17T04:50:48.016Z,2.50
2023-05-17T04:53:17.041Z,2.80
2023-05-17T04:55:44.935Z,3.40
2023-05-17T04:58:13.040Z,2.77
2023-05-17T05:00:40.696Z,3.13
2023-05-17T05:03:08.661Z,2.83
2023-05-17T05:05:36.585Z,3.43
2023-05-17T05:08:04.344Z,2.77
2023-05-17T05:10:33.499Z,3.20
2023-05-17T05:13:01.203Z,2.50
2023-05-17T05:15:29.197Z,3.00
2023-05-17T05:17:57.356Z,2.80
2023-05-17T05:20:27.731Z,3.53
2023-05-17T05:22:57.380Z,2.77
2023-05-17T05:25:25.073Z,3.13
2023-05-17T05:27:54.065Z,2.90
2023-05-17T05:30:22.911Z,3.10
2023-05-17T05:32:50.827Z,2.80
2023-05-17T05:35:18.974Z,2.93
2023-05-17T05:37:46.877Z,2.93
2023-05-17T05:40:15.459Z,3.77
2023-05-17T05:42:43.040Z,3.37
2023-05-17T05:45:13.237Z,4.63
2023-05-17T05:47:40.990Z,3.27
2023-05-17T05:50:10.299Z,3.03
2023-05-17T05:52:38.063Z,3.33
2023-05-17T05:55:06.291Z,3.57
2023-05-17T05:57:33.925Z,3.70
2023-05-17T06:00:01.519Z,3.60
2023-05-17T06:02:30.569Z,3.13
2023-05-17T06:04:58.210Z,3.10
2023-05-17T06:07:25.891Z,3.23
2023-05-17T06:09:53.570Z,3.57
2023-05-17T06:12:21.411Z,3.37
2023-05-17T06:14:49.066Z,3.37
2023-05-17T06:17:16.723Z,3.87
2023-05-17T06:19:46.007Z,3.57
2023-05-17T06:22:13.637Z,3.10
2023-05-17T06:24:41.246Z,3.20
2023-05-17T06:27:09.077Z,3.80
2023-05-17T06:29:36.703Z,3.33
2023-05-17T06:32:05.480Z,3.73
2023-05-17T06:34:33.130Z,3.23
2023-05-17T06:37:02.210Z,3.70
2023-05-17T06:39:29.863Z,3.30
2023-05-17T06:41:57.574Z,3.00
2023-05-17T06:44:25.395Z,3.67
2023-05-17T06:46:53.074Z,3.40
2023-05-17T06:49:20.877Z,3.47
2023-05-17T06:51:49.192Z,4.17
2023-05-17T06:54:20.596Z,3.37
2023-05-17T06:56:48.178Z,3.30
2023-05-17T06:59:16.547Z,3.70
2023-05-17T07:01:44.187Z,2.87
2023-05-17T07:04:11.964Z,3.17
2023-05-17T07:06:39.647Z,3.47
2023-05-17T07:09:10.386Z,3.47
2023-05-17T07:11:41.982Z,3.33
2023-05-17T07:14:09.620Z,2.83
2023-05-17T07:16:37.310Z,2.90
2023-05-17T07:19:05.173Z,3.50
2023-05-17T07:21:33.017Z,2.97
2023-05-17T07:24:00.837Z,3.53
2023-05-17T07:26:28.455Z,3.20
2023-05-17T07:28:57.453Z,3.13
2023-05-17T07:31:25.318Z,3.10
2023-05-17T07:33:53.134Z,3.10
2023-05-17T07:36:20.925Z,3.30
2023-05-17T07:38:48.641Z,2.60
2023-05-17T07:41:17.167Z,3.10
2023-05-17T07:43:44.854Z,2.80
2023-05-17T07:46:13.851Z,2.57
2023-05-17T07:48:41.578Z,2.90
2023-05-17T07:51:09.388Z,3.30
2023-05-17T07:53:37.091Z,2.70
2023-05-17T07:56:05.037Z,2.97
2023-05-17T07:58:32.801Z,3.30
2023-05-17T08:01:00.948Z,2.90
2023-05-17T08:03:30.773Z,2.57
2023-05-17T08:05:58.466Z,2.67
2023-05-17T08:08:26.366Z,2.03
2023-05-17T08:10:54.058Z,2.80
2023-05-17T08:13:23.571Z,2.70
2023-05-17T08:15:55.985Z,2.37
2023-05-17T08:18:30.630Z,2.97
2023-05-17T08:20:58.549Z,2.63
2023-05-17T08:23:26.333Z,2.60
2023-05-17T08:25:53.975Z,3.07
2023-05-17T08:28:22.227Z,2.80
2023-05-17T08:30:50.066Z,3.10
2023-05-17T08:33:17.824Z,3.00
2023-05-17T08:35:47.577Z,3.07
2023-05-17T08:38:15.304Z,3.00
2023-05-17T08:40:43.022Z,2.73
2023-05-17T08:43:12.956Z,2.97
2023-05-17T08:45:41.033Z,2.97
2023-05-17T08:48:09.275Z,2.20
2023-05-17T08:50:38.701Z,2.33
2023-05-17T08:53:09.101Z,2.80
2023-05-17T08:55:38.051Z,2.50
2023-05-17T08:58:07.151Z,2.73
2023-05-17T09:00:35.058Z,2.40
2023-05-17T09:03:02.920Z,2.77
2023-05-17T09:05:30.785Z,2.97
2023-05-17T09:07:59.307Z,2.40
2023-05-17T09:10:28.713Z,2.40
2023-05-17T09:12:56.677Z,2.53
2023-05-17T09:15:27.167Z,2.30
2023-05-17T09:17:56.164Z,2.33
2023-05-17T09:20:25.778Z,2.30
2023-05-17T09:23:04.353Z,2.53
2023-05-17T09:25:32.530Z,2.50
2023-05-17T09:28:02.705Z,2.27
2023-05-17T09:30:31.596Z,2.43
2023-05-17T09:32:59.658Z,2.73
2023-05-17T09:35:31.575Z,2.73
2023-05-17T09:38:08.544Z,3.03
2023-05-17T09:40:40.623Z,2.10
2023-05-17T09:43:09.121Z,2.50
2023-05-17T09:45:37.305Z,3.03
2023-05-17T09:48:15.292Z,2.67
2023-05-17T09:50:47.135Z,2.17
2023-05-17T09:53:29.703Z,2.70
2023-05-17T09:55:58.892Z,2.90
2023-05-17T09:58:27.119Z,2.67
2023-05-17T10:00:55.568Z,3.63
2023-05-17T10:03:23.844Z,3.17
2023-05-17T10:05:52.357Z,2.40
2023-05-17T10:08:25.918Z,3.13
2023-05-17T10:10:56.730Z,2.73
2023-05-17T10:13:25.858Z,2.30
2023-05-17T10:15:54.731Z,3.57
2023-05-17T10:18:23.228Z,2.87
2023-05-17T10:20:51.525Z,3.03
2023-05-17T10:23:20.253Z,2.80
2023-05-17T10:25:48.416Z,2.60
2023-05-17T10:28:18.255Z,2.90
2023-05-17T10:30:46.736Z,2.80
2023-05-17T10:33:14.523Z,2.57
2023-05-17T10:35:42.580Z,2.97
2023-05-17T10:38:10.589Z,2.87
2023-05-17T10:40:38.705Z,2.70
2023-05-17T10:43:07.159Z,3.10
2023-05-17T10:45:37.852Z,2.83
2023-05-17T10:48:06.843Z,2.83
2023-05-17T10:50:34.898Z,3.37
2023-05-17T10:53:04.665Z,3.23
2023-05-17T10:55:38.977Z,3.70
2023-05-17T10:58:17.873Z,3.43
2023-05-17T11:00:48.806Z,3.20
2023-05-17T11:03:18.452Z,2.63
2023-05-17T11:06:21.944Z,2.77
2023-05-17T11:09:09.261Z,2.43
2023-05-17T11:11:37.193Z,2.93
2023-05-17T11:14:05.872Z,2.87
2023-05-17T11:16:38.179Z,3.00
2023-05-17T11:19:10.331Z,2.90
2023-05-17T11:21:46.723Z,3.00
2023-05-17T11:24:18.044Z,2.83
2023-05-17T11:26:47.198Z,2.80
2023-05-17T11:29:15.794Z,2.90
2023-05-17T11:31:46.401Z,2.73
2023-05-17T11:34:14.243Z,3.10
2023-05-17T11:36:52.936Z,2.70
2023-05-17T11:39:22.755Z,3.03
2023-05-17T11:41:51.706Z,2.57
2023-05-17T11:44:26.148Z,2.80
2023-05-17T11:47:01.840Z,3.00
2023-05-17T11:49:35.762Z,3.10
2023-05-17T11:52:04.424Z,3.27
2023-05-17T11:54:32.130Z,2.80
2023-05-17T11:57:00.772Z,2.90
2023-05-17T11:59:28.440Z,2.73
2023-05-17T12:01:57.505Z,3.10
2023-05-17T12:04:27.061Z,2.83
2023-05-17T12:06:55.830Z,2.90
2023-05-17T12:09:26.088Z,2.73
2023-05-17T12:11:53.824Z,3.60
2023-05-17T12:14:21.752Z,2.53
2023-05-17T12:16:53.176Z,2.70
2023-05-17T12:19:23.467Z,2.80
2023-05-17T12:21:51.693Z,3.00
2023-05-17T12:24:19.747Z,2.47
2023-05-17T12:26:48.327Z,3.10
2023-05-17T12:29:22.816Z,2.97
2023-05-17T12:31:51.951Z,3.10
2023-05-17T12:34:19.861Z,2.80
2023-05-17T12:36:50.624Z,2.50
2023-05-17T12:39:23.506Z,2.30
2023-05-17T12:41:51.961Z,3.00
2023-05-17T12:44:20.799Z,2.70
2023-05-17T12:46:53.507Z,2.70
2023-05-17T12:49:23.120Z,2.50
2023-05-17T12:51:52.279Z,2.30
2023-05-17T12:54:29.644Z,2.20
2023-05-17T12:56:57.857Z,2.50
2023-05-17T12:59:26.298Z,2.40
2023-05-17T13:01:56.561Z,2.27
2023-05-17T13:04:31.767Z,2.57
2023-05-17T13:07:02.596Z,2.67
2023-05-17T13:09:32.009Z,2.63
2023-05-17T13:12:00.892Z,1.93
2023-05-17T13:14:36.519Z,1.70
2023-05-17T13:17:05.552Z,2.27
2023-05-17T13:19:33.699Z,2.10
2023-05-17T13:22:02.821Z,2.17
2023-05-17T13:24:32.419Z,2.10
2023-05-17T13:27:00.132Z,2.30
2023-05-17T13:29:38.297Z,2.10
2023-05-17T13:32:07.810Z,2.73
2023-05-17T13:34:35.892Z,2.50
2023-05-17T13:37:05.917Z,2.23
2023-05-17T13:39:35.761Z,1.83
2023-05-17T13:42:03.665Z,2.50
2023-05-17T13:44:31.379Z,2.20
2023-05-17T13:46:59.040Z,2.30
2023-05-17T13:49:28.180Z,2.47
2023-05-17T13:51:56.717Z,2.37
2023-05-17T13:54:25.790Z,2.10
2023-05-17T13:56:54.893Z,1.90
2023-05-17T13:59:22.490Z,2.13
2023-05-17T14:01:50.181Z,2.60
2023-05-17T14:04:17.858Z,2.27
2023-05-17T14:06:48.035Z,2.40
2023-05-17T14:09:16.732Z,2.40
2023-05-17T14:11:46.222Z,2.10
2023-05-17T14:14:13.808Z,2.27
2023-05-17T14:16:41.688Z,2.30
2023-05-17T14:19:09.389Z,2.17
2023-05-17T14:21:37.079Z,2.30
2023-05-17T14:24:04.886Z,2.23
2023-05-17T14:26:32.609Z,1.97
2023-05-17T14:29:01.729Z,2.17
2023-05-17T14:31:32.242Z,1.90
2023-05-17T14:33:59.980Z,2.00
2023-05-17T14:36:28.062Z,2.37
2023-05-17T14:38:55.667Z,2.17
2023-05-17T14:41:23.326Z,2.20
2023-05-17T14:43:51.152Z,2.20
2023-05-17T14:46:20.278Z,2.10
2023-05-17T14:48:48.059Z,2.00
2023-05-17T14:51:15.724Z,1.90
2023-05-17T14:53:43.352Z,2.20
2023-05-17T14:56:11.436Z,2.10
2023-05-17T14:58:39.408Z,2.07
2023-05-17T15:01:07.399Z,2.40
2023-05-17T15:03:36.892Z,2.10
2023-05-17T15:06:08.176Z,1.77
2023-05-17T15:08:39.358Z,2.03
2023-05-17T15:11:07.401Z,2.03
2023-05-17T15:13:35.378Z,2.20
2023-05-17T15:16:03.858Z,2.17
2023-05-17T15:18:31.684Z,2.50
2023-05-17T15:21:00.848Z,2.00
2023-05-17T15:23:29.272Z,2.10
2023-05-17T15:25:57.227Z,2.03
2023-05-17T15:28:25.315Z,2.30
2023-05-17T15:31:01.460Z,2.47
2023-05-17T15:33:30.794Z,2.37
2023-05-17T15:36:00.166Z,2.17
2023-05-17T15:38:28.408Z,2.40
2023-05-17T15:41:03.893Z,2.07
2023-05-17T15:43:31.889Z,1.97
2023-05-17T15:46:00.063Z,2.17
2023-05-17T15:48:29.271Z,2.47
2023-05-17T15:50:57.526Z,2.37
2023-05-17T15:53:27.697Z,2.57
2023-05-17T15:55:55.449Z,2.43
2023-05-17T15:58:24.311Z,2.10
2023-05-17T16:00:52.489Z,2.43
2023-05-17T16:03:20.429Z,2.43
2023-05-17T16:05:48.277Z,2.27
2023-05-17T16:08:16.485Z,2.10
2023-05-17T16:10:47.762Z,1.70
2023-05-17T16:13:15.622Z,2.10
2023-05-17T16:15:43.401Z,1.93
2023-05-17T16:18:13.625Z,2.17
2023-05-17T16:20:41.522Z,2.17
2023-05-17T16:23:09.155Z,1.97
2023-05-17T16:25:37.573Z,2.30
2023-05-17T16:28:06.626Z,2.13
2023-05-17T16:30:34.249Z,2.20
2023-05-17T16:33:01.928Z,2.23
2023-05-17T16:35:30.126Z,2.10
2023-05-17T16:37:58.141Z,2.00
2023-05-17T16:40:28.753Z,2.23
2023-05-17T16:42:56.641Z,3.13
2023-05-17T16:45:27.459Z,2.37
2023-05-17T16:47:57.512Z,2.23
2023-05-17T16:50:25.153Z,2.87
2023-05-17T16:52:52.791Z,2.50
2023-05-17T16:55:20.474Z,2.50
2023-05-17T16:57:48.134Z,2.07
2023-05-17T17:00:16.833Z,2.40
2023-05-17T17:02:45.953Z,2.17
2023-05-17T17:05:13.653Z,2.20
2023-05-17T17:07:41.327Z,2.50
2023-05-17T17:10:09.763Z,2.50
2023-05-17T17:12:37.489Z,2.67
2023-05-17T17:15:07.795Z,2.63
2023-05-17T17:17:36.153Z,2.03
2023-05-17T17:20:06.577Z,2.53
2023-05-17T17:22:34.236Z,2.07
2023-05-17T17:25:02.010Z,2.63
2023-05-17T17:27:29.719Z,2.33
2023-05-17T17:29:57.839Z,2.60
2023-05-17T17:32:25.610Z,2.60
2023-05-17T17:34:53.333Z,2.00
2023-05-17T17:37:22.565Z,2.00
2023-05-17T17:39:50.156Z,2.23
2023-05-17T17:42:17.830Z,2.20
2023-05-17T17:44:45.429Z,2.70
2023-05-17T17:47:13.352Z,2.50
2023-05-17T17:49:41.104Z,2.40
2023-05-17T17:52:08.741Z,2.43
2023-05-17T17:54:37.755Z,2.23
2023-05-17T17:57:05.666Z,2.30
2023-05-17T17:59:33.331Z,2.50
2023-05-17T18:02:00.990Z,2.17
2023-05-17T18:04:28.674Z,2.37
2023-05-17T18:06:56.784Z,2.40
2023-05-17T18:09:24.516Z,2.13
2023-05-17T18:11:53.520Z,2.17
2023-05-17T18:14:21.712Z,2.53
2023-05-17T18:16:49.498Z,2.10
2023-05-17T18:19:17.276Z,2.50
2023-05-17T18:21:44.926Z,2.40
2023-05-17T18:24:12.618Z,2.60
2023-05-17T18:26:40.395Z,3.03
2023-05-17T18:29:09.368Z,2.20
2023-05-17T18:31:37.107Z,2.27
2023-05-17T18:34:04.789Z,2.60
2023-05-17T18:36:32.414Z,2.70
2023-05-17T18:39:00.857Z,2.03
2023-05-17T18:41:28.434Z,2.70
2023-05-17T18:44:01.485Z,2.50
2023-05-17T18:46:30.972Z,2.10
2023-05-17T18:48:58.831Z,2.53
2023-05-17T18:51:26.498Z,2.60
2023-05-17T18:53:55.082Z,2.50
2023-05-17T18:56:24.984Z,2.20
2023-05-17T18:58:52.944Z,2.70
2023-05-17T19:01:20.640Z,2.80
2023-05-17T19:03:51.379Z,2.73
2023-05-17T19:06:19.497Z,2.30
2023-05-17T19:08:47.159Z,2.63
2023-05-17T19:11:14.808Z,3.00
2023-05-17T19:13:42.550Z,2.37
2023-05-17T19:16:10.268Z,2.43
2023-05-17T19:18:37.887Z,2.23
2023-05-17T19:21:07.474Z,2.30
2023-05-17T19:23:36.011Z,2.83
2023-05-17T19:26:03.784Z,2.23
2023-05-17T19:28:32.960Z,2.23
2023-05-17T19:31:00.739Z,2.50
2023-05-17T19:33:28.377Z,2.73
2023-05-17T19:35:56.082Z,2.33
2023-05-17T19:38:25.024Z,2.47
2023-05-17T19:40:52.671Z,2.00
2023-05-17T19:43:20.337Z,2.30
2023-05-17T19:45:47.963Z,2.17
2023-05-17T19:48:15.595Z,2.37
2023-05-17T19:50:43.316Z,2.43
2023-05-17T19:53:11.024Z,2.47
2023-05-17T19:55:40.971Z,2.47
2023-05-17T19:58:08.595Z,2.93
2023-05-17T20:00:37.411Z,2.30
2023-05-17T20:03:05.894Z,2.37
2023-05-17T20:05:33.642Z,2.40
2023-05-17T20:08:02.524Z,2.53
2023-05-17T20:10:31.474Z,2.60
2023-05-17T20:13:00.725Z,2.40
2023-05-17T20:15:28.511Z,2.10
2023-05-17T20:17:56.187Z,2.13
2023-05-17T20:20:25.010Z,2.10
2023-05-17T20:22:52.590Z,2.43
2023-05-17T20:25:20.549Z,2.10
2023-05-17T20:27:48.324Z,2.27
2023-05-17T20:30:17.430Z,2.07
2023-05-17T20:32:45.079Z,2.13
2023-05-17T20:35:12.743Z,2.80
2023-05-17T20:37:40.412Z,2.00
2023-05-17T20:40:09.627Z,2.43
2023-05-17T20:42:40.260Z,1.93
2023-05-17T20:45:08.900Z,2.30
2023-05-17T20:47:37.923Z,2.17
2023-05-17T20:50:06.193Z,2.13
2023-05-17T20:52:39.546Z,1.90
2023-05-17T20:55:08.813Z,1.80
2023-05-17T20:57:36.550Z,2.50
2023-05-17T21:00:06.130Z,2.20
2023-05-17T21:02:33.917Z,2.20
2023-05-17T21:05:03.367Z,2.20
2023-05-17T21:07:31.061Z,2.27
2023-05-17T21:09:58.827Z,2.00
2023-05-17T21:12:26.931Z,2.07
2023-05-17T21:15:07.931Z,2.40
2023-05-17T21:17:42.166Z,2.03
2023-05-17T21:20:12.582Z,1.83
2023-05-17T21:22:40.213Z,2.53
2023-05-17T21:25:08.555Z,2.17
2023-05-17T21:27:36.157Z,2.40
2023-05-17T21:30:03.838Z,2.50
2023-05-17T21:32:31.580Z,2.90
2023-05-17T21:34:59.616Z,2.37
2023-05-17T21:37:28.593Z,2.20
2023-05-17T21:39:56.264Z,2.80
2023-05-17T21:42:24.137Z,2.30
2023-05-17T21:44:52.857Z,2.13
2023-05-17T21:47:20.484Z,2.13
2023-05-17T21:49:48.134Z,2.00
2023-05-17T21:52:15.821Z,2.03
2023-05-17T21:54:45.056Z,2.57
2023-05-17T21:57:12.708Z,2.27
2023-05-17T21:59:40.369Z,2.23
2023-05-17T22:02:08.684Z,2.27
2023-05-17T22:04:36.639Z,2.10
2023-05-17T22:07:05.390Z,2.50
2023-05-17T22:09:34.238Z,2.37
2023-05-17T22:12:04.913Z,2.80
2023-05-17T22:14:33.296Z,2.30
2023-05-17T22:17:01.350Z,2.53
2023-05-17T22:19:31.096Z,2.10
2023-05-17T22:21:58.928Z,2.40
2023-05-17T22:24:26.486Z,2.70
2023-05-17T22:26:54.081Z,2.50
2023-05-17T22:29:23.190Z,2.10
2023-05-17T22:31:50.888Z,2.27
2023-05-17T22:34:18.868Z,3.03
2023-05-17T22:36:46.480Z,2.40
2023-05-17T22:39:14.237Z,2.27
2023-05-17T22:41:41.896Z,3.70
2023-05-17T22:44:09.506Z,2.67
2023-05-17T22:46:38.788Z,2.00
2023-05-17T22:49:06.424Z,2.50
2023-05-17T22:51:35.267Z,2.37
2023-05-17T22:54:03.251Z,2.93
2023-05-17T22:56:31.183Z,2.57
2023-05-17T22:58:59.187Z,2.60
2023-05-17T23:01:26.872Z,2.33
2023-05-17T23:03:56.225Z,2.30
2023-05-17T23:06:24.363Z,2.73
2023-05-17T23:08:52.876Z,2.20
2023-05-17T23:11:20.910Z,2.13
2023-05-17T23:13:48.558Z,2.53
2023-05-17T23:16:16.437Z,2.27
2023-05-17T23:18:44.402Z,2.43
2023-05-17T23:21:13.498Z,2.50
2023-05-17T23:23:41.434Z,2.40
2023-05-17T23:26:09.078Z,2.37
2023-05-17T23:28:38.194Z,2.23
2023-05-17T23:31:06.105Z,2.23
2023-05-17T23:33:33.714Z,2.07
2023-05-17T23:36:01.344Z,2.43
2023-05-17T23:38:30.425Z,2.40
2023-05-17T23:40:58.240Z,3.03
2023-05-17T23:43:26.305Z,2.63
2023-05-17T23:45:53.986Z,2.27
2023-05-17T23:48:25.608Z,2.67
2023-05-17T23:50:53.258Z,3.63
2023-05-17T23:53:20.852Z,2.40
2023-05-17T23:55:49.824Z,2.47
2023-05-17T23:58:17.430Z,2.20
